الصفحة الرئيسية
METAR-TAF:

METAR-TAF

مطار :

Hagi, اليابان

دائرة عرض: 34-40N, خط طول: 131-48E, ارتفاع: 54 متر

مراقبة الطقس الحالي

تاريخ ووقت الإصدار 9ساعات و 52 دقيقة قبل الساعة 10:00UTC
ريح 3 عقدة من الجنوب/الجنوب الشرقي, الاتجاه يتراوح بين الشرق و الجنوب
درجة الحرارة 23°درجة مئوية
الرطوبة 94%
ضغط 1004 hPa
الرؤية 10 كم أو أكثر
غيوم قليلة على ارتفاع 1500 قدم
غيوم متفرقة على ارتفاع 5000 قدم
غيوم مفككة على ارتفاع 10000 قدم
مطر خفيف

METAR: RJOW 151000Z 15003KT 080V180 9999 -RA FEW015 SCT050 BKN100 23/22 Q1004

زمن: 04:52 (19:52 UTC)


TAF: مفقودة

أرصاد الطقس والتوقعات من أكثر من 4000 مطار (تقارير الطقس للمطار METAR والتنبؤ بالطقس بالمطارTAF).

المحطات المتاحة هي النقط الصفراء والحمراء على الخريطة.

حرك المؤشر فوق النقطة لمعرفة اسم المحطة.

ثم انقر لمعرفة أرصاد وتوقعات الطقس.

لتغيير الخارطة: اضغط على الأزرار الخضراء مع رمز الصليب الأسود للتكبير. على الزر الأخضر مع شرطة للتصغير، أو على الأسهم الخضراء للخرائط المجاورة.


METAR-TAF: